Time;durP1;ratioP1;P1;durP2;ratioP2;P2;SDS_P1;SDS_P2;PMS_P1;PMS_P2;Temp;Humidity;BMP_temperature;BMP_pressure;BME280_temperature;BME280_humidity;BME280_pressure;Samples;Min_cycle;Max_cycle;Signal;HPM_P1;HPM_P2
2024/03/08 00:00:33;;;;;;;29.00;19.90;;;;;;;4.19;70.23;100292.38;2499834;28;20136;-77
2024/03/08 00:01:46;;;;;;;28.88;19.88;;;;;;;4.17;70.37;100284.59;2499817;28;20078;-77
2024/03/08 00:03:01;;;;;;;29.52;21.92;;;;;;;4.14;70.43;100285.44;2496439;28;20058;-77
2024/03/08 00:04:15;;;;;;;26.00;19.80;;;;;;;4.14;70.26;100281.97;2486695;28;20397;-77
2024/03/08 00:05:30;;;;;;;26.27;20.08;;;;;;;4.13;70.43;100285.41;2485964;29;20126;-77
2024/03/08 00:06:45;;;;;;;26.05;19.58;;;;;;;4.13;70.47;100280.22;2484933;29;20044;-77
2024/03/08 00:08:00;;;;;;;36.60;21.17;;;;;;;4.12;70.33;100281.94;2494753;28;20047;-77
2024/03/08 00:09:15;;;;;;;30.27;20.20;;;;;;;4.12;70.39;100283.66;2504048;28;20058;-77
2024/03/08 00:10:30;;;;;;;33.97;22.80;;;;;;;4.09;70.35;100284.50;2500722;28;20136;-77
2024/03/08 00:11:43;;;;;;;31.80;21.48;;;;;;;4.08;70.48;100281.88;2499315;28;20054;-77
2024/03/08 00:12:58;;;;;;;28.58;20.88;;;;;;;4.06;70.38;100287.06;2503902;28;20058;-77
2024/03/08 00:14:11;;;;;;;29.73;21.63;;;;;;;4.05;70.46;100287.03;2495542;28;20134;-77
2024/03/08 00:15:26;;;;;;;28.95;20.75;;;;;;;4.02;70.39;100280.09;2500306;28;20143;-77
2024/03/08 00:16:43;;;;;;;27.50;22.00;;;;;;;3.99;70.65;100282.66;2483972;29;20059;-77
2024/03/08 00:17:57;;;;;;;29.80;22.48;;;;;;;3.97;70.56;100278.31;2484137;29;20122;-77
2024/03/08 00:19:11;;;;;;;29.95;20.50;;;;;;;3.93;70.61;100278.28;2484198;29;20497;-77
2024/03/08 00:20:26;;;;;;;31.92;22.15;;;;;;;3.92;70.68;100283.41;2483362;28;20048;-77
2024/03/08 00:21:39;;;;;;;31.25;22.30;;;;;;;3.91;70.75;100279.97;2484181;29;20043;-77
2024/03/08 00:22:53;;;;;;;35.22;22.15;;;;;;;3.92;70.89;100274.00;2483892;29;20473;-77
2024/03/08 00:24:07;;;;;;;31.33;21.17;;;;;;;3.91;70.69;100273.97;2483697;28;20536;-77
2024/03/08 00:25:23;;;;;;;32.42;22.60;;;;;;;3.89;70.83;100271.34;2484151;29;20059;-77
2024/03/08 00:26:37;;;;;;;37.78;22.30;;;;;;;3.89;70.77;100270.47;2483867;29;20052;-77
2024/03/08 00:27:55;;;;;;;32.13;23.98;;;;;;;3.87;70.84;100273.06;2492161;28;20075;-77
2024/03/08 00:29:09;;;;;;;26.35;18.45;;;;;;;3.86;70.83;100279.06;2503305;28;20058;-77
2024/03/08 00:30:25;;;;;;;31.50;23.15;;;;;;;3.86;70.76;100266.16;2501257;28;20063;-77
2024/03/08 00:31:38;;;;;;;31.67;22.95;;;;;;;3.84;70.91;100265.25;2497851;28;20643;-77
2024/03/08 00:32:52;;;;;;;28.08;21.45;;;;;;;3.83;70.89;100260.09;2497231;28;20059;-77
2024/03/08 00:34:06;;;;;;;30.25;21.95;;;;;;;3.83;70.80;100265.25;2501517;28;20062;-77
2024/03/08 00:35:20;;;;;;;29.10;20.40;;;;;;;3.82;70.98;100254.06;2503280;28;20431;-77
2024/03/08 00:36:34;;;;;;;38.67;22.60;;;;;;;3.81;70.61;100254.91;2503444;28;20051;-77
2024/03/08 00:37:48;;;;;;;31.63;22.38;;;;;;;3.81;70.89;100257.47;2503957;28;20057;-78
2024/03/08 00:39:06;;;;;;;27.23;18.50;;;;;;;3.78;70.77;100257.44;2497309;28;20428;-77
2024/03/08 00:40:20;;;;;;;32.65;20.67;;;;;;;3.79;71.00;100245.41;2486475;28;20051;-77
2024/03/08 00:41:35;;;;;;;29.38;19.63;;;;;;;3.78;70.91;100247.13;2484948;29;20513;-77
2024/03/08 00:42:49;;;;;;;31.58;22.08;;;;;;;3.75;70.89;100254.84;2484982;29;20314;-78
2024/03/08 00:44:04;;;;;;;29.25;21.30;;;;;;;3.74;71.06;100244.47;2495743;28;20046;-77
2024/03/08 00:45:18;;;;;;;26.88;20.25;;;;;;;3.72;71.16;100242.75;2495946;28;20122;-77
2024/03/08 00:46:32;;;;;;;29.13;22.27;;;;;;;3.73;71.07;100251.34;2500405;28;20504;-77
2024/03/08 00:47:46;;;;;;;30.15;22.00;;;;;;;3.71;70.98;100250.47;2498147;28;20046;-77
2024/03/08 00:49:01;;;;;;;35.28;23.95;;;;;;;3.69;71.11;100242.72;2503351;28;20520;-77
2024/03/08 00:50:15;;;;;;;30.00;23.35;;;;;;;3.68;71.14;100247.84;2494913;28;20073;-77
2024/03/08 00:51:29;;;;;;;31.08;22.88;;;;;;;3.66;71.16;100252.13;2498600;28;20051;-77
2024/03/08 00:52:43;;;;;;;35.05;22.50;;;;;;;3.62;71.17;100250.38;2485378;29;20570;-77
2024/03/08 00:53:56;;;;;;;37.80;24.88;;;;;;;3.59;71.20;100246.03;2490427;29;20078;-77
2024/03/08 00:55:12;;;;;;;30.52;22.50;;;;;;;3.56;71.21;100251.13;2484789;29;20062;-77
2024/03/08 00:56:25;;;;;;;34.58;23.48;;;;;;;3.54;71.43;100251.94;2483348;28;20106;-76
2024/03/08 00:57:41;;;;;;;30.90;22.15;;;;;;;3.55;71.39;100243.38;2496284;29;20063;-77
2024/03/08 00:58:55;;;;;;;29.45;20.20;;;;;;;3.55;71.53;100246.81;2498481;28;20036;-76
2024/03/08 01:00:11;;;;;;;32.70;22.42;;;;;;;3.53;71.52;100245.94;2484153;28;20586;-77
2024/03/08 01:01:26;;;;;;;33.40;22.90;;;;;;;3.54;71.58;100241.63;2484247;29;20066;-77
2024/03/08 01:02:41;;;;;;;35.83;25.92;;;;;;;3.54;71.80;100246.78;2488571;29;20047;-77
2024/03/08 01:03:54;;;;;;;31.67;21.35;;;;;;;3.50;71.47;100236.44;2487289;28;20046;-78
2024/03/08 01:05:09;;;;;;;35.30;23.13;;;;;;;3.47;71.44;100241.56;2491288;29;20466;-77
2024/03/08 01:06:23;;;;;;;32.67;22.05;;;;;;;3.43;71.51;100237.22;2477143;29;20080;-77
2024/03/08 01:07:37;;;;;;;34.17;23.55;;;;;;;3.42;71.67;100238.06;2491233;28;20404;-78
2024/03/08 01:08:52;;;;;;;34.35;24.42;;;;;;;3.42;71.64;100238.06;2504419;28;20406;-78
2024/03/08 01:10:09;;;;;;;33.80;22.48;;;;;;;3.39;71.69;100244.88;2495408;28;20079;-77
2024/03/08 01:11:23;;;;;;;33.25;23.83;;;;;;;3.36;71.74;100235.41;2486808;28;20058;-77
2024/03/08 01:12:37;;;;;;;31.52;21.73;;;;;;;3.34;71.86;100233.66;2503054;28;20097;-77
2024/03/08 01:13:53;;;;;;;38.25;24.10;;;;;;;3.32;71.88;100231.03;2502226;28;20058;-77
2024/03/08 01:15:08;;;;;;;30.88;22.08;;;;;;;3.34;72.16;100228.47;2493659;29;20541;-77
2024/03/08 01:16:21;;;;;;;30.38;22.83;;;;;;;3.35;72.07;100225.03;2484126;29;20051;-77
2024/03/08 01:17:36;;;;;;;34.20;22.42;;;;;;;3.33;71.89;100225.03;2494304;29;20058;-76
2024/03/08 01:18:50;;;;;;;34.33;21.23;;;;;;;3.31;72.06;100224.16;2493888;29;20059;-77
2024/03/08 01:20:05;;;;;;;35.72;25.00;;;;;;;3.31;72.18;100224.16;2493919;28;20057;-76
2024/03/08 01:21:18;;;;;;;28.90;20.52;;;;;;;3.30;72.27;100214.66;2503944;28;20055;-77
2024/03/08 01:22:33;;;;;;;30.58;21.42;;;;;;;3.32;72.16;100220.72;2500616;28;20049;-76
2024/03/08 01:23:46;;;;;;;33.28;23.90;;;;;;;3.33;72.08;100219.00;2499847;28;20046;-77
2024/03/08 01:25:01;;;;;;;33.33;22.52;;;;;;;3.31;71.98;100216.41;2504959;28;20054;-77
2024/03/08 01:26:15;;;;;;;39.72;24.08;;;;;;;3.33;72.09;100219.00;2503308;28;20405;-76
2024/03/08 01:27:29;;;;;;;32.83;20.85;;;;;;;3.32;72.16;100220.72;2503405;28;20054;-77
2024/03/08 01:28:42;;;;;;;28.20;21.67;;;;;;;3.32;72.14;100210.41;2503851;28;20047;-76
2024/03/08 01:29:59;;;;;;;35.42;25.80;;;;;;;3.33;72.01;100201.84;2503670;28;20487;-77
2024/03/08 01:31:13;;;;;;;33.22;23.85;;;;;;;3.32;72.00;100210.41;2493232;28;20071;-76
2024/03/08 01:32:28;;;;;;;36.33;23.52;;;;;;;3.31;71.90;100208.69;2493086;28;20106;-77
2024/03/08 01:33:42;;;;;;;36.72;24.58;;;;;;;3.29;72.01;100205.19;2498691;28;20452;-77
2024/03/08 01:34:56;;;;;;;33.78;23.08;;;;;;;3.26;72.12;100202.59;2497431;28;20055;-77
2024/03/08 01:36:10;;;;;;;34.45;27.00;;;;;;;3.24;71.95;100204.28;2493291;28;20566;-76
2024/03/08 01:37:24;;;;;;;35.05;23.25;;;;;;;3.21;71.97;100202.50;2494162;29;20051;-77
2024/03/08 01:38:38;;;;;;;40.03;24.17;;;;;;;3.18;72.13;100196.47;2495332;29;20073;-77
2024/03/08 01:39:53;;;;;;;31.83;21.00;;;;;;;3.17;72.14;100194.72;2493709;28;20146;-77
2024/03/08 01:41:06;;;;;;;31.50;22.13;;;;;;;3.14;72.24;100195.53;2495019;29;20146;-78
2024/03/08 01:42:22;;;;;;;33.72;24.67;;;;;;;3.14;72.27;100192.09;2494531;28;20048;-77
2024/03/08 01:43:35;;;;;;;30.83;22.65;;;;;;;3.12;72.16;100188.63;2493636;28;20051;-78
2024/03/08 01:44:49;;;;;;;38.00;24.70;;;;;;;3.10;72.31;100183.47;2494447;29;20065;-77
2024/03/08 01:46:05;;;;;;;39.83;24.10;;;;;;;3.09;72.31;100186.88;2501464;28;20455;-77
2024/03/08 01:47:20;;;;;;;35.15;22.80;;;;;;;3.09;72.38;100193.75;2495480;28;20055;-79
2024/03/08 01:48:33;;;;;;;33.33;23.67;;;;;;;3.09;72.37;100196.31;2495443;28;20040;-79
2024/03/08 01:49:48;;;;;;;32.05;21.52;;;;;;;3.08;72.44;100192.88;2494840;28;20074;-78
2024/03/08 01:51:02;;;;;;;31.58;22.00;;;;;;;3.07;72.44;100183.38;2496555;29;20062;-78
2024/03/08 01:52:18;;;;;;;31.73;22.15;;;;;;;3.05;72.35;100188.53;2495883;28;20058;-79
2024/03/08 01:53:32;;;;;;;34.38;20.98;;;;;;;3.04;72.36;100183.34;2495437;28;20709;-78
2024/03/08 01:54:47;;;;;;;33.70;23.55;;;;;;;3.05;72.43;100185.97;2496074;29;20150;-78
2024/03/08 01:56:00;;;;;;;32.97;24.88;;;;;;;3.05;72.30;100191.13;2494640;28;20531;-78
2024/03/08 01:57:16;;;;;;;33.53;22.65;;;;;;;3.04;72.47;100189.38;2495223;29;20057;-78
2024/03/08 01:58:29;;;;;;;36.58;23.50;;;;;;;3.03;72.51;100177.34;2498084;28;20062;-78
2024/03/08 01:59:44;;;;;;;30.63;22.75;;;;;;;3.03;72.53;100179.06;2504707;28;20046;-78
2024/03/08 02:00:57;;;;;;;31.83;20.92;;;;;;;3.02;72.30;100174.72;2498826;28;20059;-78
2024/03/08 02:02:16;;;;;;;30.85;22.15;;;;;;;2.98;72.38;100166.09;2495535;29;20541;-78
2024/03/08 02:03:31;;;;;;;34.08;23.23;;;;;;;2.97;72.37;100163.47;2495164;28;20202;-78
2024/03/08 02:04:45;;;;;;;34.97;22.70;;;;;;;2.95;72.52;100163.47;2495380;29;20059;-78
2024/03/08 02:05:59;;;;;;;36.20;21.90;;;;;;;2.94;72.41;100169.47;2495094;29;20055;-78
2024/03/08 02:07:13;;;;;;;35.92;24.50;;;;;;;2.93;72.48;100159.16;2494519;29;20134;-78
2024/03/08 02:08:27;;;;;;;29.80;22.15;;;;;;;2.93;72.54;100157.44;2496930;28;20054;-77
2024/03/08 02:09:41;;;;;;;40.83;25.67;;;;;;;2.94;72.55;100148.84;2500942;28;20102;-77
2024/03/08 02:10:55;;;;;;;34.42;24.48;;;;;;;2.93;72.40;100148.84;2495159;29;20113;-78
2024/03/08 02:12:09;;;;;;;33.20;23.38;;;;;;;2.91;72.40;100138.50;2494537;28;20044;-78
2024/03/08 02:13:23;;;;;;;38.25;23.55;;;;;;;2.89;72.52;100144.47;2487179;28;20063;-78
2024/03/08 02:14:37;;;;;;;33.65;24.50;;;;;;;2.84;72.55;100134.97;2498598;28;20047;-78
2024/03/08 02:15:52;;;;;;;29.85;19.63;;;;;;;2.82;72.60;100136.66;2504081;28;20372;-78
2024/03/08 02:17:07;;;;;;;34.08;23.83;;;;;;;2.81;72.64;100132.38;2505100;28;20082;-77
2024/03/08 02:18:23;;;;;;;29.10;19.88;;;;;;;2.79;72.78;100131.47;2496310;28;20078;-78
2024/03/08 02:19:37;;;;;;;33.90;21.13;;;;;;;2.80;72.82;100137.47;2496022;28;20047;-77
2024/03/08 02:20:52;;;;;;;30.58;21.65;;;;;;;2.81;72.55;100141.78;2494969;29;20055;-78
2024/03/08 02:22:07;;;;;;;34.13;21.13;;;;;;;2.78;72.52;100132.28;2496411;28;20132;-78
2024/03/08 02:23:21;;;;;;;29.70;22.80;;;;;;;2.75;72.62;100131.38;2496862;28;20421;-78
2024/03/08 02:24:35;;;;;;;33.88;23.05;;;;;;;2.73;72.71;100138.22;2497403;29;20051;-78
2024/03/08 02:25:49;;;;;;;33.47;23.33;;;;;;;2.71;72.65;100138.22;2496929;29;20138;-78
2024/03/08 02:27:03;;;;;;;40.83;26.38;;;;;;;2.69;72.64;100133.88;2497643;29;20059;-78
2024/03/08 02:28:18;;;;;;;33.70;22.65;;;;;;;2.68;72.78;100137.28;2497976;28;20047;-78
2024/03/08 02:29:34;;;;;;;28.88;21.02;;;;;;;2.66;72.67;100139.88;2497995;28;20055;-78
2024/03/08 02:30:48;;;;;;;35.38;23.13;;;;;;;2.65;72.79;100132.09;2497800;29;20110;-78
2024/03/08 02:32:03;;;;;;;33.33;23.60;;;;;;;2.64;72.86;100138.09;2497430;28;20307;-78
2024/03/08 02:33:17;;;;;;;34.67;25.08;;;;;;;2.64;72.87;100143.25;2497476;28;20063;-78
2024/03/08 02:34:32;;;;;;;37.60;23.27;;;;;;;2.64;73.13;100136.38;2503930;28;20050;-77
2024/03/08 02:35:46;;;;;;;35.25;23.88;;;;;;;2.63;72.89;100137.22;2506060;28;20054;-78
2024/03/08 02:37:03;;;;;;;33.63;22.83;;;;;;;2.61;72.82;100131.19;2499564;28;20047;-77
2024/03/08 02:38:18;;;;;;;33.88;22.75;;;;;;;2.58;73.05;100128.56;2504684;28;20154;-77
2024/03/08 02:39:33;;;;;;;37.40;23.67;;;;;;;2.55;72.72;100131.94;2503232;28;20054;-78
2024/03/08 02:40:47;;;;;;;29.77;22.95;;;;;;;2.51;72.94;100134.47;2497029;29;20115;-78
2024/03/08 02:42:02;;;;;;;35.80;23.27;;;;;;;2.46;72.89;100129.25;2496001;29;20051;-77
2024/03/08 02:43:17;;;;;;;31.10;22.55;;;;;;;2.39;72.83;100130.84;2496161;28;20055;-77
2024/03/08 02:44:33;;;;;;;37.85;25.52;;;;;;;2.33;73.02;100125.59;2495119;28;20058;-77
2024/03/08 02:45:46;;;;;;;34.28;23.25;;;;;;;2.29;73.22;100123.81;2496582;29;20062;-78
2024/03/08 02:47:01;;;;;;;33.55;23.02;;;;;;;2.24;73.25;100124.56;2496475;29;20134;-79
2024/03/08 02:48:16;;;;;;;37.70;24.25;;;;;;;2.20;73.17;100125.38;2495827;28;20054;-77
2024/03/08 02:49:30;;;;;;;36.45;21.67;;;;;;;2.15;73.38;100120.16;2497022;28;20057;-78
2024/03/08 02:50:44;;;;;;;33.38;24.17;;;;;;;2.11;73.47;100126.94;2496642;29;20074;-78
2024/03/08 02:51:58;;;;;;;32.88;22.90;;;;;;;2.08;73.64;100120.88;2496250;28;20115;-78
2024/03/08 02:53:14;;;;;;;37.42;24.75;;;;;;;2.07;73.88;100126.88;2496955;28;20417;-78
2024/03/08 02:54:28;;;;;;;34.92;22.42;;;;;;;2.05;73.75;100121.69;2496634;28;20469;-78
2024/03/08 02:55:42;;;;;;;38.10;26.05;;;;;;;2.03;73.93;100123.38;2496434;28;20049;-78
2024/03/08 02:56:56;;;;;;;39.17;24.27;;;;;;;2.02;74.05;100121.66;2496296;28;20155;-78
2024/03/08 02:58:10;;;;;;;37.03;25.85;;;;;;;2.00;74.06;100118.19;2496711;28;20071;-78
2024/03/08 02:59:24;;;;;;;33.78;22.65;;;;;;;2.00;73.96;100119.88;2496509;28;20059;-78
2024/03/08 03:00:38;;;;;;;39.60;26.10;;;;;;;1.98;74.22;100117.28;2497054;28;20057;-78
2024/03/08 03:01:53;;;;;;;34.50;23.77;;;;;;;1.96;74.13;100112.13;2497030;29;20058;-78
2024/03/08 03:03:06;;;;;;;34.63;22.77;;;;;;;1.94;74.39;100118.06;2499396;28;20051;-78
2024/03/08 03:04:20;;;;;;;38.42;23.75;;;;;;;1.95;74.30;100124.94;2500599;28;20134;-77
2024/03/08 03:05:34;;;;;;;36.22;22.60;;;;;;;1.95;74.38;100125.81;2498242;28;20070;-78
2024/03/08 03:06:48;;;;;;;36.50;23.63;;;;;;;1.95;74.45;100127.53;2497692;29;20138;-77
2024/03/08 03:08:04;;;;;;;35.45;23.85;;;;;;;1.95;74.46;100112.94;2496523;28;20051;-78
2024/03/08 03:09:23;;;;;;;35.53;22.90;;;;;;;1.95;74.60;100117.22;2497119;29;20055;-78
2024/03/08 03:10:37;;;;;;;37.03;24.08;;;;;;;1.96;74.62;100112.13;2497450;29;20047;-78
2024/03/08 03:11:51;;;;;;;37.65;23.48;;;;;;;1.96;74.61;100106.97;2496452;28;20047;-78
2024/03/08 03:13:05;;;;;;;33.10;24.45;;;;;;;1.99;74.64;100113.00;2497318;29;20048;-77
2024/03/08 03:14:19;;;;;;;37.55;24.77;;;;;;;1.98;74.58;100111.25;2496715;29;20051;-78
2024/03/08 03:15:33;;;;;;;34.58;24.38;;;;;;;1.97;74.66;100107.84;2496838;28;20137;-78
2024/03/08 03:16:48;;;;;;;34.10;24.42;;;;;;;1.97;74.69;100100.13;2497351;28;20062;-77
2024/03/08 03:18:01;;;;;;;31.48;21.05;;;;;;;1.94;74.62;100100.94;2495912;29;20054;-77
2024/03/08 03:19:16;;;;;;;31.73;20.90;;;;;;;1.92;74.65;100097.44;2495547;29;20130;-77
2024/03/08 03:20:32;;;;;;;34.38;22.95;;;;;;;1.95;74.66;100104.34;2495133;28;20043;-77
2024/03/08 03:21:47;;;;;;;35.92;24.77;;;;;;;1.96;74.60;100095.78;2495325;29;20135;-77
2024/03/08 03:23:01;;;;;;;39.75;24.17;;;;;;;1.97;74.56;100100.13;2495403;29;20066;-77
2024/03/08 03:24:16;;;;;;;36.22;24.60;;;;;;;1.96;74.48;100100.94;2495852;28;20044;-77
2024/03/08 03:25:34;;;;;;;40.03;25.08;;;;;;;1.94;74.42;100090.63;2498936;28;20465;-77
2024/03/08 03:26:49;;;;;;;32.78;22.95;;;;;;;1.94;74.62;100089.78;2495254;29;20398;-77
2024/03/08 03:28:04;;;;;;;34.70;24.77;;;;;;;1.92;74.46;100089.72;2494594;28;20043;-77
2024/03/08 03:29:20;;;;;;;31.83;21.33;;;;;;;1.91;74.74;100088.00;2495032;29;20513;-78
2024/03/08 03:30:33;;;;;;;35.58;23.52;;;;;;;1.90;74.70;100091.41;2495229;28;20505;-78
2024/03/08 03:31:47;;;;;;;35.70;23.50;;;;;;;1.89;74.64;100087.13;2494906;28;20047;-77
2024/03/08 03:33:01;;;;;;;38.08;23.02;;;;;;;1.88;74.60;100087.94;2495013;28;20071;-77
2024/03/08 03:34:16;;;;;;;31.30;20.88;;;;;;;1.88;74.76;100084.50;2494520;29;20126;-77
2024/03/08 03:35:29;;;;;;;39.50;25.40;;;;;;;1.86;74.72;100081.91;2494943;28;20086;-77
2024/03/08 03:36:46;;;;;;;38.47;24.52;;;;;;;1.87;74.81;100088.78;2495649;29;20058;-78
2024/03/08 03:38:06;;;;;;;38.33;24.17;;;;;;;1.87;74.83;100088.78;2495750;29;20536;-78
2024/03/08 03:39:22;;;;;;;37.47;24.92;;;;;;;1.87;74.76;100086.22;2494857;28;20134;-77
2024/03/08 03:40:37;;;;;;;35.22;22.58;;;;;;;1.86;74.58;100084.50;2495379;28;20055;-77
2024/03/08 03:41:52;;;;;;;35.25;22.58;;;;;;;1.85;74.84;100089.59;2495532;29;20047;-77
2024/03/08 03:43:05;;;;;;;35.55;21.85;;;;;;;1.83;74.73;100091.28;2495357;29;20043;-78
2024/03/08 03:44:20;;;;;;;37.80;22.88;;;;;;;1.81;74.61;100086.13;2495373;28;20070;-77
2024/03/08 03:45:34;;;;;;;34.97;22.65;;;;;;;1.80;74.87;100086.94;2495613;29;20082;-77
2024/03/08 03:46:50;;;;;;;35.50;24.63;;;;;;;1.78;74.81;100088.59;2495537;28;20090;-78
2024/03/08 03:48:04;;;;;;;37.13;23.33;;;;;;;1.76;74.90;100080.03;2495563;28;20406;-77
2024/03/08 03:49:19;;;;;;;38.05;25.20;;;;;;;1.75;74.92;100084.28;2495569;28;20062;-77
2024/03/08 03:50:34;;;;;;;37.30;22.65;;;;;;;1.73;74.97;100075.69;2496040;29;20054;-78
2024/03/08 03:51:48;;;;;;;29.95;21.00;;;;;;;1.72;74.84;100081.66;2495619;28;20043;-78
2024/03/08 03:53:02;;;;;;;36.65;23.73;;;;;;;1.70;74.93;100078.22;2495586;29;20047;-78
2024/03/08 03:54:17;;;;;;;31.73;22.92;;;;;;;1.70;74.83;100069.59;2495351;29;20051;-77
2024/03/08 03:55:30;;;;;;;34.03;21.80;;;;;;;1.69;74.96;100067.88;2495097;28;20066;-77
2024/03/08 03:56:46;;;;;;;31.50;20.42;;;;;;;1.68;75.01;100073.88;2495912;29;20556;-77
2024/03/08 03:58:01;;;;;;;33.47;21.90;;;;;;;1.66;75.05;100081.56;2495752;28;20051;-77
2024/03/08 03:59:15;;;;;;;31.58;21.83;;;;;;;1.65;75.03;100077.25;2496049;29;20130;-77
2024/03/08 04:00:28;;;;;;;34.40;21.38;;;;;;;1.66;75.04;100080.69;2494739;28;20051;-77
2024/03/08 04:01:43;;;;;;;36.55;23.38;;;;;;;1.64;75.04;100065.22;2495996;29;20102;-77
2024/03/08 04:03:00;;;;;;;33.60;23.00;;;;;;;1.65;75.10;100071.22;2495660;29;20134;-77
2024/03/08 04:04:14;;;;;;;39.15;23.27;;;;;;;1.64;75.06;100064.38;2495285;28;20142;-78
2024/03/08 04:05:28;;;;;;;33.72;21.98;;;;;;;1.64;74.99;100070.38;2496675;29;20066;-78
2024/03/08 04:06:43;;;;;;;35.83;23.60;;;;;;;1.63;75.15;100063.50;2496265;29;20054;-78
2024/03/08 04:07:57;;;;;;;34.47;23.48;;;;;;;1.62;75.01;100068.59;2495825;28;20051;-78
2024/03/08 04:09:12;;;;;;;28.27;21.80;;;;;;;1.62;74.99;100066.03;2496477;29;20087;-78
2024/03/08 04:10:25;;;;;;;33.90;23.92;;;;;;;1.60;75.31;100070.28;2496167;29;20059;-78
2024/03/08 04:11:40;;;;;;;35.78;23.98;;;;;;;1.60;75.12;100065.13;2495772;28;20090;-78
2024/03/08 04:12:56;;;;;;;41.70;25.15;;;;;;;1.62;75.27;100066.88;2495851;28;20055;-77
2024/03/08 04:14:11;;;;;;;33.95;21.77;;;;;;;1.63;75.25;100073.78;2495491;28;20047;-77
2024/03/08 04:15:24;;;;;;;35.33;22.90;;;;;;;1.65;75.21;100066.09;2494836;28;20047;-77
2024/03/08 04:16:39;;;;;;;35.08;22.83;;;;;;;1.65;75.25;100066.97;2495453;29;20053;-77
2024/03/08 04:17:52;;;;;;;33.53;21.83;;;;;;;1.68;75.29;100063.59;2495237;29;20051;-77
2024/03/08 04:19:08;;;;;;;34.67;23.38;;;;;;;1.69;75.13;100063.59;2495390;29;20138;-77
2024/03/08 04:20:21;;;;;;;31.75;21.33;;;;;;;1.69;75.00;100058.44;2494972;28;20060;-77
2024/03/08 04:21:36;;;;;;;33.42;21.73;;;;;;;1.69;75.03;100058.44;2495514;29;20528;-78
2024/03/08 04:22:49;;;;;;;30.27;20.10;;;;;;;1.70;74.94;100049.03;2494930;29;20402;-77
2024/03/08 04:24:04;;;;;;;35.08;21.90;;;;;;;1.70;75.03;100049.03;2494262;28;20058;-77
2024/03/08 04:25:17;;;;;;;39.60;26.67;;;;;;;1.70;74.91;100055.06;2494864;28;20051;-77
2024/03/08 04:26:33;;;;;;;37.58;24.60;;;;;;;1.70;75.06;100049.91;2495558;29;20077;-77
2024/03/08 04:27:49;;;;;;;33.47;21.80;;;;;;;1.69;74.89;100049.88;2494666;28;20142;-77
2024/03/08 04:29:05;;;;;;;33.13;20.80;;;;;;;1.66;74.83;100037.81;2495119;28;20059;-77
2024/03/08 04:30:18;;;;;;;34.00;23.40;;;;;;;1.65;74.82;100043.81;2494868;29;20047;-77
2024/03/08 04:31:32;;;;;;;35.42;21.20;;;;;;;1.64;74.72;100036.94;2501688;28;20130;-78
2024/03/08 04:32:47;;;;;;;31.08;21.83;;;;;;;1.64;74.93;100036.94;2500697;28;20418;-78
2024/03/08 04:34:01;;;;;;;29.05;21.83;;;;;;;1.67;74.73;100036.97;2494849;29;20386;-77
2024/03/08 04:35:15;;;;;;;32.28;22.65;;;;;;;1.67;74.84;100036.97;2494646;29;20497;-77
2024/03/08 04:36:29;;;;;;;29.98;21.38;;;;;;;1.67;74.76;100033.53;2493288;28;20117;-77
2024/03/08 04:37:45;;;;;;;35.03;21.60;;;;;;;1.66;74.56;100032.69;2494538;29;20047;-77
2024/03/08 04:38:58;;;;;;;31.35;21.13;;;;;;;1.66;74.67;100031.81;2494600;28;20051;-77
2024/03/08 04:40:13;;;;;;;30.52;20.52;;;;;;;1.66;74.87;100031.81;2493954;28;20139;-77
2024/03/08 04:41:26;;;;;;;31.52;22.35;;;;;;;1.66;74.77;100032.69;2493994;29;20055;-77
2024/03/08 04:42:41;;;;;;;29.60;19.95;;;;;;;1.68;74.67;100037.88;2494152;29;20053;-77
2024/03/08 04:43:57;;;;;;;33.50;22.38;;;;;;;1.67;74.66;100031.84;2499043;28;20066;-77
2024/03/08 04:45:13;;;;;;;25.13;17.73;;;;;;;1.68;74.65;100031.00;2496833;28;20074;-77
2024/03/08 04:46:28;;;;;;;30.10;20.85;;;;;;;1.66;74.32;100024.97;2493866;29;20115;-77
2024/03/08 04:47:42;;;;;;;34.15;22.50;;;;;;;1.67;74.30;100020.69;2494078;28;20102;-77
2024/03/08 04:48:56;;;;;;;30.50;21.17;;;;;;;1.66;74.48;100034.41;2493871;28;20412;-77
2024/03/08 04:50:11;;;;;;;28.60;19.35;;;;;;;1.68;74.63;100025.00;2494000;29;20126;-77
2024/03/08 04:51:25;;;;;;;31.58;21.65;;;;;;;1.70;74.25;100023.31;2493783;28;20134;-77
2024/03/08 04:52:39;;;;;;;30.70;21.48;;;;;;;1.68;74.44;100020.72;2494403;29;20050;-77
2024/03/08 04:53:53;;;;;;;33.72;22.35;;;;;;;1.66;74.25;100017.25;2494477;29;20061;-77
2024/03/08 04:55:07;;;;;;;34.17;22.50;;;;;;;1.67;74.41;100018.09;2494399;29;20501;-77
2024/03/08 04:56:21;;;;;;;28.15;19.95;;;;;;;1.66;73.96;100017.25;2493670;28;20047;-77
2024/03/08 04:57:35;;;;;;;29.55;19.23;;;;;;;1.66;74.11;100021.53;2493678;29;20054;-77
2024/03/08 04:58:49;;;;;;;30.52;20.35;;;;;;;1.65;74.20;100023.25;2497806;28;20061;-77
2024/03/08 05:00:08;;;;;;;32.05;19.50;;;;;;;1.64;74.14;100013.78;2497625;28;20047;-77
2024/03/08 05:01:23;;;;;;;34.75;22.40;;;;;;;1.62;74.27;100020.59;2493982;28;20162;-77
2024/03/08 05:02:38;;;;;;;35.53;20.95;;;;;;;1.61;73.93;100018.88;2494179;29;20051;-77
2024/03/08 05:03:55;;;;;;;39.10;23.38;;;;;;;1.60;74.00;100012.00;2493688;28;20513;-77
2024/03/08 05:05:11;;;;;;;29.55;19.90;;;;;;;1.59;73.97;100014.53;2494459;28;20058;-77
2024/03/08 05:06:25;;;;;;;29.08;19.60;;;;;;;1.59;74.04;100025.69;2501487;28;20081;-76
2024/03/08 05:07:39;;;;;;;33.30;20.73;;;;;;;1.60;73.88;100014.59;2496117;28;20051;-77
2024/03/08 05:08:53;;;;;;;36.75;19.40;;;;;;;1.60;74.16;100014.59;2499603;28;20119;-77
2024/03/08 05:10:09;;;;;;;28.90;19.42;;;;;;;1.59;74.15;100010.25;2500531;28;20655;-77
2024/03/08 05:11:22;;;;;;;25.88;18.92;;;;;;;1.58;74.05;100015.41;2495451;28;20051;-77
2024/03/08 05:12:38;;;;;;;35.17;21.23;;;;;;;1.58;74.03;100017.97;2501265;28;20070;-77
2024/03/08 05:13:52;;;;;;;28.73;19.20;;;;;;;1.58;74.12;100012.81;2498109;28;20050;-78
2024/03/08 05:15:07;;;;;;;26.90;21.33;;;;;;;1.58;74.03;100017.97;2497503;28;20098;-76
2024/03/08 05:16:22;;;;;;;28.58;22.80;;;;;;;1.58;73.86;100018.84;2493246;28;20047;-77
2024/03/08 05:17:40;;;;;;;33.08;21.55;;;;;;;1.59;73.96;100017.13;2493942;29;20486;-77
2024/03/08 05:18:53;;;;;;;32.50;20.98;;;;;;;1.57;73.90;100021.38;2494347;28;20055;-77
2024/03/08 05:20:12;;;;;;;32.22;21.42;;;;;;;1.53;73.80;100023.03;2493411;28;20082;-77
2024/03/08 05:21:25;;;;;;;30.25;21.30;;;;;;;1.52;73.98;100013.56;2494164;29;20152;-76
2024/03/08 05:22:40;;;;;;;29.20;20.27;;;;;;;1.50;74.09;100015.25;2495637;28;20149;-77
2024/03/08 05:23:54;;;;;;;31.58;20.52;;;;;;;1.49;74.04;100014.38;2492779;28;20087;-77
2024/03/08 05:25:09;;;;;;;30.77;21.55;;;;;;;1.50;74.15;100016.13;2499047;28;20429;-77
2024/03/08 05:26:22;;;;;;;32.55;20.85;;;;;;;1.51;73.97;100014.41;2494098;28;20055;-76
2024/03/08 05:27:37;;;;;;;30.15;21.73;;;;;;;1.51;74.15;100020.41;2494465;28;20047;-77
2024/03/08 05:28:50;;;;;;;31.10;19.92;;;;;;;1.53;73.99;100020.44;2503052;28;20047;-77
2024/03/08 05:30:06;;;;;;;28.45;20.92;;;;;;;1.55;73.77;100012.75;2502630;28;20134;-77
2024/03/08 05:31:22;;;;;;;31.30;20.60;;;;;;;1.52;73.86;100018.69;2502830;28;20513;-76
2024/03/08 05:32:37;;;;;;;35.20;19.92;;;;;;;1.49;73.82;100009.22;2502377;28;20632;-77
2024/03/08 05:33:51;;;;;;;33.28;20.65;;;;;;;1.48;73.80;100006.66;2493585;28;20048;-76
2024/03/08 05:35:07;;;;;;;29.52;20.58;;;;;;;1.48;74.23;100007.50;2492962;28;20051;-77
2024/03/08 05:36:21;;;;;;;26.77;19.45;;;;;;;1.49;74.15;100011.78;2493293;28;20047;-77
2024/03/08 05:37:35;;;;;;;27.90;21.35;;;;;;;1.50;74.00;100010.97;2494252;29;20055;-77
2024/03/08 05:38:50;;;;;;;30.27;19.80;;;;;;;1.50;73.98;100010.97;2493191;28;20516;-77
2024/03/08 05:40:08;;;;;;;27.77;18.98;;;;;;;1.51;74.11;100001.56;2492263;28;20075;-76
2024/03/08 05:41:22;;;;;;;30.13;20.42;;;;;;;1.50;73.88;100010.13;2492682;28;20109;-76
2024/03/08 05:42:37;;;;;;;26.45;19.95;;;;;;;1.48;73.98;100014.38;2492854;29;20482;-77